Time;durP1;ratioP1;P1;durP2;ratioP2;P2;SDS_P1;SDS_P2;PMS_P1;PMS_P2;Temp;Humidity;BMP_temperature;BMP_pressure;BME280_temperature;BME280_humidity;BME280_pressure;Samples;Min_cycle;Max_cycle;Signal;HPM_P1;HPM_P2
2022/07/17 00:01:08;;;;;;;1.77;0.77;;;;;;;12.26;93.65;101655.72;5043226;28;20241;-76
2022/07/17 00:03:34;;;;;;;0.70;0.70;;;;;;;12.17;93.92;101659.38;5054902;28;20202;-77
2022/07/17 00:06:01;;;;;;;3.17;0.80;;;;;;;12.01;93.29;101653.50;5043101;28;20209;-76
2022/07/17 00:08:27;;;;;;;0.90;0.73;;;;;;;12.04;95.63;101657.81;5038944;28;20199;-76
2022/07/17 00:10:53;;;;;;;0.80;0.80;;;;;;;12.00;95.60;101658.78;5040739;28;20223;-76
2022/07/17 00:13:21;;;;;;;1.97;0.93;;;;;;;11.95;96.15;101655.38;5043018;28;20199;-76
2022/07/17 00:15:47;;;;;;;0.90;0.80;;;;;;;11.82;92.95;101672.91;5037862;28;20210;-76
2022/07/17 00:18:14;;;;;;;1.17;0.97;;;;;;;11.78;93.33;101673.88;5037739;28;20207;-76
2022/07/17 00:20:40;;;;;;;0.90;0.80;;;;;;;11.87;97.53;101673.72;5048094;28;20222;-76
2022/07/17 00:23:06;;;;;;;2.03;0.90;;;;;;;11.86;96.62;101672.00;5045953;28;20199;-76
2022/07/17 00:25:33;;;;;;;1.30;0.80;;;;;;;11.91;97.36;101672.84;5046274;28;20191;-77
2022/07/17 00:27:59;;;;;;;1.13;0.70;;;;;;;11.82;94.58;101681.66;5039035;28;20706;-76
2022/07/17 00:30:27;;;;;;;1.30;0.70;;;;;;;11.82;97.50;101675.53;5043773;28;20223;-76
2022/07/17 00:32:53;;;;;;;2.23;0.90;;;;;;;11.78;96.78;101674.72;5043029;28;20681;-76
2022/07/17 00:35:21;;;;;;;3.20;1.07;;;;;;;11.68;93.58;101679.22;5045164;28;20675;-76
2022/07/17 00:37:49;;;;;;;2.40;1.03;;;;;;;11.73;96.53;101681.75;5043043;28;20206;-76
2022/07/17 00:40:20;;;;;;;3.60;0.97;;;;;;;11.63;95.16;101675.81;5036616;28;20245;-76
2022/07/17 00:42:48;;;;;;;2.00;0.80;;;;;;;11.44;90.81;101685.63;5048766;28;20223;-76
2022/07/17 00:45:15;;;;;;;2.83;0.87;;;;;;;11.68;98.47;101676.63;5047202;28;20834;-76
2022/07/17 00:47:54;;;;;;;0.80;0.80;;;;;;;11.58;96.91;101669.78;5048569;28;20209;-76
2022/07/17 00:50:21;;;;;;;1.80;0.80;;;;;;;11.56;96.64;101676.78;5049445;28;20739;-76
2022/07/17 00:52:48;;;;;;;0.97;0.93;;;;;;;11.66;99.53;101681.00;5046277;28;20195;-76
2022/07/17 00:55:15;;;;;;;1.00;0.90;;;;;;;11.70;100.00;101681.81;5051049;28;20212;-76
2022/07/17 00:57:45;;;;;;;1.87;0.90;;;;;;;11.56;98.76;101675.03;5048502;28;20846;-76
2022/07/17 01:00:13;;;;;;;1.87;0.83;;;;;;;11.43;96.98;101683.03;5047096;28;20227;-77
2022/07/17 01:02:39;;;;;;;0.80;0.80;;;;;;;11.48;99.41;101676.88;5051558;28;20226;-76
2022/07/17 01:05:07;;;;;;;1.33;1.00;;;;;;;11.44;99.13;101679.56;5049519;28;20690;-76
2022/07/17 01:07:34;;;;;;;0.80;0.70;;;;;;;11.45;99.30;101678.66;5042213;28;20484;-76
2022/07/17 01:10:01;;;;;;;2.40;0.90;;;;;;;11.43;100.00;101678.66;5045894;28;20218;-76
2022/07/17 01:12:28;;;;;;;3.37;0.77;;;;;;;11.41;100.00;101683.06;5052174;28;20204;-76
2022/07/17 01:14:56;;;;;;;3.23;0.90;;;;;;;11.60;100.00;101675.00;5045773;28;20203;-76
2022/07/17 01:17:22;;;;;;;0.67;0.67;;;;;;;11.39;99.58;101686.59;5044848;28;20210;-76
2022/07/17 01:19:49;;;;;;;0.80;0.80;;;;;;;11.39;100.00;101681.34;5042833;28;20207;-76
2022/07/17 01:22:17;;;;;;;3.10;1.00;;;;;;;11.48;100.00;101683.84;5048886;28;20225;-76
2022/07/17 01:24:43;;;;;;;1.33;0.80;;;;;;;11.52;100.00;101680.31;5042874;28;20579;-76
2022/07/17 01:27:09;;;;;;;1.43;0.67;;;;;;;11.50;100.00;101688.19;5044228;28;20218;-76
2022/07/17 01:29:37;;;;;;;1.20;1.10;;;;;;;11.35;100.00;101688.38;5049074;28;20276;-76
2022/07/17 01:32:03;;;;;;;0.80;0.80;;;;;;;11.32;100.00;101684.03;5042250;28;20198;-76
2022/07/17 01:34:30;;;;;;;1.80;1.00;;;;;;;11.42;100.00;101683.94;5049633;28;20211;-76
2022/07/17 01:36:56;;;;;;;2.10;0.80;;;;;;;11.41;100.00;101682.19;5046671;28;20202;-76
2022/07/17 01:42:05;;;;;;;0.80;0.80;;;;;;;11.36;100.00;101684.84;5045625;28;20226;-76
2022/07/17 01:44:31;;;;;;;1.30;0.90;;;;;;;11.27;100.00;101692.81;5048329;28;20201;-76
2022/07/17 01:46:57;;;;;;;2.23;0.80;;;;;;;11.18;100.00;101692.03;5043951;28;20205;-76
2022/07/17 01:49:24;;;;;;;3.07;0.90;;;;;;;11.17;100.00;101692.06;5038045;28;20228;-76
2022/07/17 01:51:50;;;;;;;2.43;1.20;;;;;;;11.08;100.00;101682.59;5043050;28;20230;-76
2022/07/17 01:54:17;;;;;;;1.83;0.80;;;;;;;11.04;100.00;101691.31;5044541;28;20205;-76
2022/07/17 01:56:44;;;;;;;0.97;0.93;;;;;;;11.06;100.00;101686.09;5046651;28;20244;-76
2022/07/17 01:59:11;;;;;;;1.23;1.07;;;;;;;10.96;100.00;101687.97;5040840;28;20253;-76
2022/07/17 02:01:37;;;;;;;2.57;0.73;;;;;;;11.07;100.00;101685.22;5044873;28;20225;-76
2022/07/17 02:04:04;;;;;;;5.63;1.03;;;;;;;11.02;100.00;101687.03;5041722;28;20754;-76
2022/07/17 02:06:31;;;;;;;1.03;0.90;;;;;;;11.03;100.00;101684.41;5035304;28;20213;-75
2022/07/17 02:08:57;;;;;;;1.27;0.83;;;;;;;11.10;100.00;101677.34;5041011;28;20200;-76
2022/07/17 02:11:23;;;;;;;1.50;0.90;;;;;;;10.91;100.00;101682.78;5048677;28;20229;-76
2022/07/17 02:13:51;;;;;;;1.30;1.13;;;;;;;11.06;100.00;101673.91;5050423;28;20246;-76
2022/07/17 02:16:17;;;;;;;2.57;1.10;;;;;;;11.11;100.00;101684.28;5041405;28;20697;-76
2022/07/17 02:18:44;;;;;;;1.70;1.00;;;;;;;10.86;100.00;101681.09;5046476;28;20251;-76
2022/07/17 02:21:10;;;;;;;1.13;1.00;;;;;;;10.75;100.00;101681.22;5042871;28;20702;-75
2022/07/17 02:23:36;;;;;;;2.30;1.07;;;;;;;10.83;100.00;101684.59;5047770;28;20529;-76
2022/07/17 02:26:03;;;;;;;2.17;1.00;;;;;;;10.76;100.00;101690.75;5042196;28;20196;-76
2022/07/17 02:28:29;;;;;;;2.50;1.07;;;;;;;10.62;100.00;101690.88;5037321;28;20204;-76
2022/07/17 02:30:57;;;;;;;3.00;1.67;;;;;;;10.73;100.00;101682.94;5045741;28;20613;-75
2022/07/17 02:34:00;;;;;;;7.20;1.30;;;;;;;10.55;100.00;101682.28;5042345;28;20202;-76
2022/07/17 02:36:27;;;;;;;1.77;1.10;;;;;;;10.58;100.00;101674.41;5043769;28;20231;-76
2022/07/17 02:38:53;;;;;;;1.97;1.10;;;;;;;10.39;100.00;101681.50;5043065;28;20207;-76
2022/07/17 02:41:20;;;;;;;1.00;1.00;;;;;;;10.42;100.00;101683.25;5048027;28;20806;-76
2022/07/17 02:43:46;;;;;;;2.57;1.30;;;;;;;10.26;100.00;101684.22;5045226;28;20635;-76
2022/07/17 02:46:14;;;;;;;1.10;1.00;;;;;;;10.45;100.00;101682.34;5040350;28;20745;-76
2022/07/17 02:48:40;;;;;;;1.10;1.00;;;;;;;10.34;100.00;101698.97;5053873;28;20685;-76
2022/07/17 02:51:07;;;;;;;3.17;1.10;;;;;;;10.20;100.00;101690.31;5047701;28;20703;-76
2022/07/17 02:53:33;;;;;;;2.00;1.07;;;;;;;10.17;100.00;101691.22;5044851;28;20207;-76
2022/07/17 02:56:00;;;;;;;3.63;1.10;;;;;;;9.95;100.00;101697.47;5043102;28;20283;-76
2022/07/17 02:58:26;;;;;;;1.70;1.03;;;;;;;10.03;100.00;101696.53;5047497;28;20199;-76
2022/07/17 03:00:53;;;;;;;3.93;1.00;;;;;;;10.00;100.00;101699.16;5044663;28;20223;-76
2022/07/17 03:03:21;;;;;;;1.10;1.00;;;;;;;9.86;100.00;101694.03;5043722;28;20231;-76
2022/07/17 03:05:47;;;;;;;4.43;1.20;;;;;;;9.81;100.00;101692.34;5045036;28;20664;-76
2022/07/17 03:08:14;;;;;;;1.03;0.77;;;;;;;9.76;100.00;101695.00;5045175;28;20496;-76
2022/07/17 03:10:40;;;;;;;1.00;1.00;;;;;;;9.74;100.00;101701.06;5047373;28;20215;-76
2022/07/17 03:13:07;;;;;;;1.60;1.00;;;;;;;9.82;100.00;101699.28;5043015;28;20679;-75
2022/07/17 03:15:33;;;;;;;1.33;1.23;;;;;;;9.77;100.00;101694.09;5038044;28;20578;-76
2022/07/17 03:17:59;;;;;;;1.93;1.40;;;;;;;9.72;100.00;101688.03;5044013;28;20567;-75
2022/07/17 03:20:27;;;;;;;1.33;1.10;;;;;;;9.76;100.00;101692.38;5046383;28;20234;-76
2022/07/17 03:22:54;;;;;;;0.87;0.87;;;;;;;9.90;100.00;101696.63;5043374;28;20560;-76
2022/07/17 03:25:20;;;;;;;2.97;1.37;;;;;;;9.85;100.00;101705.34;5047358;28;20570;-76
2022/07/17 03:27:46;;;;;;;2.00;1.30;;;;;;;9.69;100.00;101710.63;5039543;28;20202;-76
2022/07/17 03:30:13;;;;;;;1.20;1.10;;;;;;;9.81;100.00;101708.81;5046395;28;20231;-76
2022/07/17 03:32:40;;;;;;;1.37;1.10;;;;;;;9.90;100.00;101712.25;5045305;28;20248;-76
2022/07/17 03:35:08;;;;;;;1.60;1.10;;;;;;;10.00;100.00;101713.94;5041960;28;20196;-75
2022/07/17 03:37:37;;;;;;;1.17;1.00;;;;;;;10.00;100.00;101722.59;5040105;28;20256;-76
2022/07/17 03:40:04;;;;;;;1.67;1.10;;;;;;;10.26;100.00;101721.56;5045816;28;20222;-76
2022/07/17 03:42:30;;;;;;;1.60;1.10;;;;;;;10.18;100.00;101723.38;5034853;28;20334;-76
2022/07/17 03:44:56;;;;;;;3.03;1.53;;;;;;;10.32;100.00;101721.56;5046707;28;20199;-76
2022/07/17 03:47:23;;;;;;;1.97;1.20;;;;;;;10.22;100.00;101725.94;5049849;28;20211;-76
2022/07/17 03:49:49;;;;;;;3.47;1.40;;;;;;;10.30;100.00;101728.50;5047006;28;20203;-76
2022/07/17 03:52:16;;;;;;;1.03;0.93;;;;;;;10.22;100.00;101730.31;5042646;28;20201;-76
2022/07/17 03:54:43;;;;;;;1.33;1.00;;;;;;;10.32;100.00;101736.34;5045677;28;20678;-76
2022/07/17 03:57:10;;;;;;;1.77;1.00;;;;;;;10.33;100.00;101736.31;5041671;28;20199;-76
2022/07/17 03:59:36;;;;;;;1.50;1.33;;;;;;;10.30;100.00;101743.28;5044467;28;20211;-75
2022/07/17 04:02:02;;;;;;;3.70;1.20;;;;;;;10.34;100.00;101734.56;5039644;28;20211;-76
2022/07/17 04:04:29;;;;;;;1.80;1.20;;;;;;;10.44;100.00;101741.44;5041066;28;20199;-76
2022/07/17 04:06:55;;;;;;;2.53;1.13;;;;;;;10.61;100.00;101741.31;5034043;28;20235;-76
2022/07/17 04:09:21;;;;;;;1.13;1.10;;;;;;;10.68;100.00;101739.53;5031942;28;20201;-76
2022/07/17 04:11:49;;;;;;;2.17;0.90;;;;;;;10.79;100.00;101753.34;5033310;28;20231;-76
2022/07/17 04:14:15;;;;;;;1.37;1.17;;;;;;;10.98;100.00;101743.59;5031810;28;20210;-76
2022/07/17 04:16:42;;;;;;;3.30;1.40;;;;;;;11.01;100.00;101750.50;5033888;28;20213;-76
2022/07/17 04:19:08;;;;;;;0.87;0.87;;;;;;;11.21;100.00;101753.78;5036716;28;20204;-76
2022/07/17 04:21:34;;;;;;;3.87;1.13;;;;;;;11.40;100.00;101764.00;5035152;28;20228;-76
2022/07/17 04:24:01;;;;;;;2.70;1.50;;;;;;;11.48;100.00;101765.66;5037636;28;20597;-73
2022/07/17 04:26:27;;;;;;;2.53;1.00;;;;;;;11.52;100.00;101772.59;5037609;28;22332;-73
2022/07/17 04:28:55;;;;;;;2.00;1.40;;;;;;;11.72;100.00;101771.50;5036616;28;20607;-73
2022/07/17 04:31:21;;;;;;;1.53;1.07;;;;;;;11.98;100.00;101767.69;5033044;28;20598;-73
2022/07/17 04:33:47;;;;;;;1.23;1.13;;;;;;;12.04;100.00;101770.22;5038051;28;20215;-73
2022/07/17 04:36:14;;;;;;;1.23;0.87;;;;;;;12.17;100.00;101769.19;5037141;28;20827;-73
2022/07/17 04:38:40;;;;;;;1.37;1.07;;;;;;;12.03;100.00;101785.06;5040858;28;20225;-73
2022/07/17 04:41:06;;;;;;;0.87;0.87;;;;;;;12.03;100.00;101785.06;5049305;28;20580;-73
2022/07/17 04:43:33;;;;;;;1.27;1.00;;;;;;;12.10;100.00;101785.81;5046995;28;20225;-74
2022/07/17 04:46:00;;;;;;;1.23;0.97;;;;;;;12.13;100.00;101786.63;5049893;28;20213;-73
2022/07/17 04:48:27;;;;;;;3.30;1.30;;;;;;;12.02;96.14;101791.16;5046628;28;20222;-74
2022/07/17 04:50:53;;;;;;;2.10;1.10;;;;;;;12.13;94.71;101807.53;5055161;28;20233;-74
2022/07/17 04:53:19;;;;;;;0.90;0.80;;;;;;;12.28;95.75;101801.25;5047011;28;20590;-73
2022/07/17 04:55:46;;;;;;;1.00;0.83;;;;;;;12.31;92.22;101813.41;5051385;28;20742;-73
2022/07/17 04:58:12;;;;;;;1.43;0.90;;;;;;;12.45;94.88;101808.84;5046016;28;20212;-73
2022/07/17 05:00:38;;;;;;;1.40;0.90;;;;;;;12.45;89.74;101814.09;5047221;28;20721;-73
2022/07/17 05:03:06;;;;;;;2.10;0.83;;;;;;;12.53;88.13;101820.94;5044252;28;20214;-74
2022/07/17 05:05:32;;;;;;;1.47;0.80;;;;;;;12.66;88.69;101819.84;5047615;28;20199;-73
2022/07/17 05:07:59;;;;;;;1.27;0.50;;;;;;;12.71;88.28;101820.66;5045982;28;20199;-73
2022/07/17 05:10:25;;;;;;;3.60;1.33;;;;;;;12.83;85.99;101824.81;5045002;28;20223;-73
2022/07/17 05:12:52;;;;;;;0.73;0.60;;;;;;;12.91;85.81;101824.69;5048424;28;20586;-73
2022/07/17 05:15:18;;;;;;;1.37;0.87;;;;;;;12.92;84.81;101821.19;5037738;28;20626;-74
2022/07/17 05:17:44;;;;;;;1.83;0.83;;;;;;;12.94;84.03;101824.66;5042497;28;20257;-73
2022/07/17 05:20:12;;;;;;;1.27;0.73;;;;;;;13.01;85.27;101826.25;5043140;28;20725;-74
2022/07/17 05:22:39;;;;;;;1.93;0.70;;;;;;;13.09;85.83;101827.00;5041796;28;20208;-73
2022/07/17 05:25:07;;;;;;;2.47;0.80;;;;;;;13.19;86.95;101823.34;5051543;28;20207;-73
2022/07/17 05:27:33;;;;;;;1.73;0.90;;;;;;;13.22;83.13;101835.50;5048090;28;20201;-73
2022/07/17 05:29:59;;;;;;;4.87;1.00;;;;;;;13.31;82.84;101834.47;5047991;28;20537;-73
2022/07/17 05:32:26;;;;;;;0.70;0.70;;;;;;;13.38;83.39;101829.09;5043917;28;20201;-74
2022/07/17 05:34:52;;;;;;;1.20;0.90;;;;;;;13.57;85.13;101834.00;5049095;28;20199;-74
2022/07/17 05:37:20;;;;;;;0.80;0.80;;;;;;;13.68;82.72;101833.81;5052870;28;20239;-74
2022/07/17 05:39:46;;;;;;;0.73;0.73;;;;;;;13.74;83.39;101834.53;5047750;28;20206;-73
2022/07/17 05:42:12;;;;;;;0.70;0.60;;;;;;;13.76;82.39;101830.13;5043798;28;20218;-74
2022/07/17 05:44:39;;;;;;;1.47;0.77;;;;;;;13.81;82.44;101833.53;5045395;28;20538;-73
2022/07/17 05:47:05;;;;;;;0.73;0.70;;;;;;;13.90;80.95;101827.22;5042666;28;20577;-73
2022/07/17 05:49:31;;;;;;;2.63;0.80;;;;;;;14.06;81.99;101834.78;5049482;28;20214;-73
2022/07/17 05:51:58;;;;;;;2.63;0.70;;;;;;;14.13;82.23;101842.47;5043847;28;20593;-74
2022/07/17 05:54:25;;;;;;;1.30;0.70;;;;;;;14.18;79.40;101837.13;5045491;28;20212;-73
2022/07/17 05:56:52;;;;;;;0.77;0.70;;;;;;;14.27;81.00;101836.06;5045481;28;20203;-73
2022/07/17 05:59:18;;;;;;;1.23;0.63;;;;;;;14.29;78.78;101844.78;5043636;28;20574;-74
2022/07/17 06:01:45;;;;;;;3.23;0.83;;;;;;;14.39;78.09;101846.28;5042364;28;20714;-74
2022/07/17 06:04:11;;;;;;;2.30;0.80;;;;;;;14.46;79.01;101845.25;5046646;28;20222;-74
2022/07/17 06:06:37;;;;;;;2.17;0.83;;;;;;;14.48;76.70;101856.56;5040740;28;20202;-73
2022/07/17 06:09:04;;;;;;;0.50;0.50;;;;;;;14.61;77.43;101853.69;5043208;28;20205;-73
2022/07/17 06:11:31;;;;;;;0.50;0.50;;;;;;;14.65;75.93;101850.09;5040834;28;20706;-74
2022/07/17 06:13:58;;;;;;;2.20;0.60;;;;;;;14.77;74.98;101853.31;5044681;28;20255;-74
2022/07/17 06:16:24;;;;;;;0.60;0.50;;;;;;;14.80;75.65;101856.75;5045447;28;20202;-73
2022/07/17 06:18:50;;;;;;;0.70;0.60;;;;;;;14.92;73.64;101861.69;5043777;28;20199;-73
2022/07/17 06:21:17;;;;;;;0.97;0.70;;;;;;;15.02;73.31;101859.69;5060625;22;20238;-72
2022/07/17 06:23:43;;;;;;;1.20;0.70;;;;;;;15.12;71.81;101861.19;5042937;28;20207;-73
2022/07/17 06:26:10;;;;;;;0.73;0.70;;;;;;;15.25;73.44;101862.63;5042939;28;20686;-72
2022/07/17 06:28:37;;;;;;;1.97;0.53;;;;;;;15.36;70.86;101869.34;5040848;28;20203;-72
2022/07/17 06:31:04;;;;;;;1.83;0.53;;;;;;;15.44;72.25;101868.25;5038622;28;20230;-72
2022/07/17 06:33:30;;;;;;;1.83;0.70;;;;;;;15.43;68.90;101870.91;5023367;28;20584;-72
2022/07/17 06:35:56;;;;;;;0.57;0.47;;;;;;;15.61;70.59;101861.66;5017229;28;20246;-72
2022/07/17 06:38:23;;;;;;;0.83;0.60;;;;;;;15.66;68.85;101871.13;5017424;28;20804;-73
2022/07/17 06:40:49;;;;;;;1.37;0.90;;;;;;;15.75;68.20;101870.06;5020054;28;20220;-72
2022/07/17 06:43:16;;;;;;;0.63;0.60;;;;;;;15.73;65.97;101876.25;5023483;28;20686;-72
2022/07/17 06:45:44;;;;;;;2.77;0.50;;;;;;;15.75;66.38;101875.31;5021445;28;20206;-72
2022/07/17 06:48:10;;;;;;;1.50;0.70;;;;;;;15.84;65.78;101882.94;5019390;28;20200;-73
2022/07/17 06:50:36;;;;;;;1.23;0.80;;;;;;;15.87;64.71;101884.63;5025525;28;20794;-72
2022/07/17 06:53:03;;;;;;;0.53;0.47;;;;;;;15.89;65.78;101881.03;5025449;28;20588;-73
2022/07/17 06:55:29;;;;;;;2.13;0.80;;;;;;;15.98;65.08;101886.97;5022538;28;20231;-72
2022/07/17 06:57:56;;;;;;;1.07;0.43;;;;;;;16.05;65.34;101888.50;5007267;28;20206;-72
2022/07/17 07:00:22;;;;;;;2.47;0.77;;;;;;;16.18;64.10;101891.63;5007669;28;20207;-72
2022/07/17 07:02:50;;;;;;;0.60;0.50;;;;;;;16.33;65.46;101893.81;5009279;28;20207;-72
2022/07/17 07:05:16;;;;;;;1.47;0.70;;;;;;;16.44;63.16;101896.97;5006279;28;20580;-73
2022/07/17 07:07:43;;;;;;;1.93;0.80;;;;;;;16.56;63.07;101885.19;5006723;28;20214;-73
2022/07/17 07:10:09;;;;;;;3.20;0.90;;;;;;;16.78;61.85;101892.41;5002017;28;20258;-73
2022/07/17 07:12:36;;;;;;;0.50;0.50;;;;;;;16.61;60.39;101885.91;5001548;28;20230;-73
2022/07/17 07:15:02;;;;;;;0.97;0.67;;;;;;;16.61;62.41;101879.81;5006383;28;20212;-73
2022/07/17 07:17:29;;;;;;;0.63;0.60;;;;;;;16.65;61.05;101890.16;5007162;28;20208;-72
2022/07/17 07:19:57;;;;;;;1.60;0.67;;;;;;;16.73;59.75;101897.00;5007759;28;20208;-72
2022/07/17 07:22:23;;;;;;;0.70;0.70;;;;;;;16.64;60.23;101887.63;5014486;28;20229;-72
2022/07/17 07:24:50;;;;;;;2.63;0.90;;;;;;;16.57;60.41;101880.78;5024009;28;20223;-73
2022/07/17 07:27:16;;;;;;;0.83;0.53;;;;;;;16.69;59.78;101898.84;5028567;28;20818;-72
2022/07/17 07:29:42;;;;;;;0.60;0.60;;;;;;;16.91;59.41;101895.56;5022909;28;20199;-73
2022/07/17 07:32:09;;;;;;;2.73;0.63;;;;;;;17.18;59.69;101886.75;5020228;28;20223;-73
2022/07/17 07:34:35;;;;;;;1.57;0.70;;;;;;;17.45;59.86;101891.09;5024105;28;20311;-73
2022/07/17 07:37:03;;;;;;;2.03;0.77;;;;;;;17.75;58.02;101887.41;5016310;28;20811;-73
2022/07/17 07:39:29;;;;;;;2.50;0.60;;;;;;;17.77;57.56;101895.25;5020814;28;20207;-73
2022/07/17 07:41:56;;;;;;;0.47;0.47;;;;;;;17.70;58.31;101896.41;5017457;28;20231;-73
2022/07/17 07:44:22;;;;;;;2.13;0.80;;;;;;;17.64;58.74;101899.22;5014478;28;20224;-73
2022/07/17 07:46:49;;;;;;;1.63;0.60;;;;;;;17.65;59.68;101896.53;5023119;28;20295;-73
2022/07/17 07:49:15;;;;;;;2.57;1.07;;;;;;;17.84;57.25;101901.19;5011780;28;20433;-73
2022/07/17 07:51:42;;;;;;;1.40;0.80;;;;;;;18.14;56.40;101897.41;5024381;28;20581;-73
2022/07/17 07:54:09;;;;;;;2.73;0.90;;;;;;;18.32;55.50;101908.19;5026987;28;20207;-73
2022/07/17 07:56:36;;;;;;;1.83;0.50;;;;;;;18.14;54.12;101910.63;5029067;28;20195;-73
2022/07/17 07:59:03;;;;;;;1.20;0.83;;;;;;;18.15;55.51;101906.19;5023359;28;20211;-73
2022/07/17 08:01:29;;;;;;;0.60;0.60;;;;;;;18.31;56.69;101894.16;5031313;28;20715;-73
2022/07/17 08:03:56;;;;;;;0.53;0.53;;;;;;;18.69;55.91;101897.03;5031008;28;20204;-73
2022/07/17 08:06:22;;;;;;;2.63;0.60;;;;;;;18.61;54.50;101893.88;5021882;28;20211;-73
2022/07/17 08:08:49;;;;;;;1.37;0.60;;;;;;;18.51;54.69;101901.28;5020388;28;20199;-73
2022/07/17 08:11:16;;;;;;;5.37;0.63;;;;;;;18.46;53.71;101903.25;5025177;28;20234;-73
2022/07/17 08:13:43;;;;;;;1.90;0.83;;;;;;;18.68;53.26;101899.75;5032714;28;20188;-73
2022/07/17 08:16:09;;;;;;;1.10;0.80;;;;;;;18.98;54.67;101900.34;5029057;28;20207;-73
2022/07/17 08:18:36;;;;;;;2.63;0.90;;;;;;;19.12;54.35;101899.75;5012595;28;20200;-73
2022/07/17 08:21:05;;;;;;;0.67;0.63;;;;;;;19.10;51.20;101910.41;5018407;28;20445;-73
2022/07/17 08:23:32;;;;;;;0.63;0.60;;;;;;;19.09;53.83;101908.66;5018812;28;20231;-73
2022/07/17 08:25:58;;;;;;;0.53;0.43;;;;;;;19.08;53.05;101906.97;5017715;28;20208;-73
2022/07/17 08:28:26;;;;;;;2.47;0.90;;;;;;;19.02;52.20;101903.72;5015918;28;20207;-73
2022/07/17 08:30:52;;;;;;;1.03;0.77;;;;;;;19.08;52.39;101906.97;5022963;28;20216;-73
2022/07/17 08:33:19;;;;;;;1.73;0.80;;;;;;;19.34;52.12;101898.84;5004422;28;20362;-73
2022/07/17 08:35:45;;;;;;;0.80;0.70;;;;;;;19.58;52.40;101904.88;5018970;28;20615;-73
2022/07/17 08:38:12;;;;;;;2.10;0.87;;;;;;;19.37;50.84;101915.44;5021334;28;20210;-73
2022/07/17 08:40:39;;;;;;;0.70;0.67;;;;;;;19.37;49.58;101915.44;5018406;28;20853;-73
2022/07/17 08:43:07;;;;;;;0.87;0.70;;;;;;;19.48;49.39;101910.53;5021501;28;20208;-73
2022/07/17 08:45:36;;;;;;;2.20;0.60;;;;;;;19.68;49.16;101908.81;5024012;28;20635;-73
2022/07/17 08:48:03;;;;;;;3.10;0.87;;;;;;;19.83;49.12;101912.59;5021047;28;20200;-73
2022/07/17 08:50:31;;;;;;;1.77;0.70;;;;;;;19.77;49.52;101915.50;5021457;28;20842;-73
2022/07/17 08:52:58;;;;;;;0.97;0.73;;;;;;;19.76;49.91;101913.81;5017501;28;20192;-73
2022/07/17 08:55:25;;;;;;;0.50;0.50;;;;;;;19.77;49.68;101910.22;5025996;28;20293;-73
2022/07/17 08:57:51;;;;;;;5.30;0.80;;;;;;;19.92;50.01;101909.53;5022896;28;20215;-73
2022/07/17 09:00:20;;;;;;;1.47;0.50;;;;;;;20.01;49.26;101916.19;5013670;28;20463;-73
2022/07/17 09:02:56;;;;;;;1.17;0.63;;;;;;;20.04;48.36;101906.31;5012805;28;20559;-73
2022/07/17 09:05:24;;;;;;;2.50;0.80;;;;;;;19.97;47.60;101910.19;5015799;28;20226;-73
2022/07/17 09:07:51;;;;;;;1.17;0.70;;;;;;;20.26;49.85;101917.72;5012018;28;20303;-73
2022/07/17 09:10:18;;;;;;;1.50;0.93;;;;;;;20.17;47.82;101913.72;5021506;28;20622;-73
2022/07/17 09:12:44;;;;;;;1.80;0.80;;;;;;;20.32;48.44;101917.44;5020639;28;20704;-73
2022/07/17 09:15:18;;;;;;;0.67;0.60;;;;;;;20.48;48.35;101909.63;5019069;28;20545;-73
2022/07/17 09:17:49;;;;;;;0.90;0.67;;;;;;;20.50;46.64;101911.28;5015183;28;20192;-73
2022/07/17 09:20:19;;;;;;;0.60;0.60;;;;;;;20.62;49.67;101912.50;5014196;28;20219;-73
2022/07/17 09:22:45;;;;;;;0.90;0.60;;;;;;;20.41;46.62;101922.31;5025250;28;20211;-73
2022/07/17 09:25:12;;;;;;;1.23;0.60;;;;;;;20.35;47.85;101918.16;5025451;28;20298;-73
2022/07/17 09:27:39;;;;;;;1.33;0.60;;;;;;;20.31;47.74;101921.88;5023399;28;20212;-73
2022/07/17 09:30:09;;;;;;;1.20;0.60;;;;;;;19.98;47.38;101914.56;5016407;28;20212;-73
2022/07/17 09:32:37;;;;;;;1.43;0.80;;;;;;;20.41;48.58;101917.00;5016490;28;20708;-73
2022/07/17 09:35:06;;;;;;;1.33;0.77;;;;;;;20.45;46.44;101904.47;5012240;28;20212;-73
2022/07/17 09:37:35;;;;;;;1.13;0.60;;;;;;;20.29;46.18;101915.78;5014289;28;20614;-73
2022/07/17 09:40:01;;;;;;;0.70;0.70;;;;;;;19.77;46.85;101911.09;5013105;28;20208;-73
2022/07/17 09:42:30;;;;;;;0.50;0.50;;;;;;;19.63;47.60;101914.31;5011727;28;20322;-73
2022/07/17 09:45:00;;;;;;;2.73;0.73;;;;;;;19.79;49.81;101917.19;5012236;28;20216;-73
2022/07/17 09:47:29;;;;;;;0.80;0.60;;;;;;;19.85;48.43;101916.88;5003946;28;20603;-73
2022/07/17 09:49:57;;;;;;;1.27;0.70;;;;;;;19.92;49.00;101916.63;5011852;28;20282;-73
2022/07/17 09:52:25;;;;;;;3.90;0.83;;;;;;;19.72;49.32;101920.09;5014454;28;20231;-73
2022/07/17 09:54:55;;;;;;;0.97;0.50;;;;;;;19.80;50.46;101918.03;5017359;28;20192;-73
2022/07/17 09:57:24;;;;;;;1.00;0.77;;;;;;;19.69;49.57;101918.47;5016099;28;20296;-73
2022/07/17 09:59:53;;;;;;;0.57;0.57;;;;;;;19.56;50.07;101920.81;5016318;28;20204;-73
2022/07/17 10:02:20;;;;;;;1.90;0.80;;;;;;;19.46;50.61;101919.47;5010813;28;20792;-73
2022/07/17 10:04:47;;;;;;;0.73;0.50;;;;;;;19.34;50.64;101914.72;5022750;28;20223;-73
2022/07/17 10:07:13;;;;;;;1.73;0.70;;;;;;;19.07;50.50;101917.59;5015939;28;20200;-73
2022/07/17 10:09:40;;;;;;;1.93;0.70;;;;;;;19.16;51.76;101911.06;5015327;28;20212;-73
2022/07/17 10:12:08;;;;;;;0.47;0.47;;;;;;;19.34;51.37;101912.06;5019761;28;20255;-73
2022/07/17 10:14:38;;;;;;;1.80;0.63;;;;;;;19.37;49.57;101915.44;5016390;28;20204;-73
2022/07/17 10:17:08;;;;;;;1.63;0.80;;;;;;;19.40;50.16;101910.03;5010116;28;20361;-73
2022/07/17 10:19:45;;;;;;;2.07;0.80;;;;;;;19.80;48.78;101910.09;5017951;28;20226;-73
2022/07/17 10:22:12;;;;;;;3.07;0.70;;;;;;;19.98;48.54;101905.75;5010418;28;21011;-73
2022/07/17 10:24:47;;;;;;;2.43;0.70;;;;;;;19.91;46.58;101901.66;5004388;28;20228;-73
2022/07/17 10:27:20;;;;;;;1.77;0.60;;;;;;;20.22;46.06;101912.56;5002797;28;20226;-73
2022/07/17 10:29:47;;;;;;;0.80;0.70;;;;;;;20.56;46.52;101907.47;5022544;28;20291;-73
2022/07/17 10:32:16;;;;;;;1.23;0.90;;;;;;;20.66;46.40;101905.28;5024860;28;20583;-73
2022/07/17 10:34:46;;;;;;;1.40;0.60;;;;;;;20.58;45.44;101903.81;5024907;28;20684;-73
2022/07/17 10:37:21;;;;;;;1.47;0.70;;;;;;;20.23;46.39;101909.00;5021284;28;20207;-73
2022/07/17 10:39:56;;;;;;;0.87;0.60;;;;;;;20.26;46.53;101901.84;5021121;28;20208;-73
2022/07/17 10:42:48;;;;;;;1.60;0.60;;;;;;;20.22;47.79;101911.72;5022920;28;20243;-74
2022/07/17 10:45:17;;;;;;;1.67;0.50;;;;;;;20.38;47.07;101910.06;5024395;28;20235;-73
2022/07/17 10:47:50;;;;;;;1.57;0.80;;;;;;;20.65;46.37;101901.78;5014760;28;20741;-73
2022/07/17 10:50:18;;;;;;;0.77;0.60;;;;;;;20.91;44.98;101899.63;5016854;28;20211;-73
2022/07/17 10:52:44;;;;;;;0.40;0.40;;;;;;;21.10;46.93;101899.56;5021386;28;20218;-73
2022/07/17 10:55:21;;;;;;;1.20;0.60;;;;;;;20.99;45.03;101897.47;5027723;28;20505;-73
2022/07/17 10:57:49;;;;;;;0.50;0.50;;;;;;;20.53;45.59;101897.88;5023689;28;20206;-73
2022/07/17 11:00:17;;;;;;;2.10;0.80;;;;;;;20.63;46.15;101892.16;5022638;28;20196;-73
2022/07/17 11:02:44;;;;;;;0.60;0.60;;;;;;;20.64;46.81;101892.09;5025687;28;20459;-73
2022/07/17 11:05:13;;;;;;;2.10;0.60;;;;;;;20.78;46.10;101892.28;5028529;28;20853;-73
2022/07/17 11:07:50;;;;;;;0.80;0.60;;;;;;;21.04;47.02;101891.94;5021369;28;20212;-73
2022/07/17 11:10:17;;;;;;;1.77;0.50;;;;;;;21.27;45.20;101885.47;5022331;28;20200;-73
2022/07/17 11:12:43;;;;;;;0.83;0.60;;;;;;;21.61;45.49;101876.63;5023446;28;20215;-73
2022/07/17 11:15:11;;;;;;;0.90;0.60;;;;;;;21.57;44.94;101874.22;5022986;28;20203;-73
2022/07/17 11:17:37;;;;;;;1.50;0.60;;;;;;;21.81;44.74;101874.69;5028560;28;20203;-73
2022/07/17 11:20:05;;;;;;;2.03;0.70;;;;;;;21.74;44.94;101868.88;5020351;28;20208;-73
2022/07/17 11:22:31;;;;;;;2.20;0.70;;;;;;;21.78;43.72;101872.22;5025253;28;20236;-73
2022/07/17 11:24:58;;;;;;;0.50;0.50;;;;;;;21.81;45.08;101877.34;5029149;28;20309;-73
2022/07/17 11:27:27;;;;;;;1.17;0.50;;;;;;;21.68;44.25;101879.81;5021742;28;20515;-74